sensor_id;sensor_type;location;lat;lon;timestamp;P1;durP1;ratioP1;P2;durP2;ratioP2
6651;SDS011;3362;50.892;10.692;2023-11-21T00:01:08;0.30;;;0.20;;
6651;SDS011;3362;50.892;10.692;2023-11-21T00:03:34;0.30;;;0.28;;
6651;SDS011;3362;50.892;10.692;2023-11-21T00:06:00;0.45;;;0.45;;
6651;SDS011;3362;50.892;10.692;2023-11-21T00:08:29;0.85;;;0.47;;
6651;SDS011;3362;50.892;10.692;2023-11-21T00:10:55;1.00;;;0.63;;
6651;SDS011;3362;50.892;10.692;2023-11-21T00:13:21;0.40;;;0.40;;
6651;SDS011;3362;50.892;10.692;2023-11-21T00:15:47;1.38;;;0.82;;
6651;SDS011;3362;50.892;10.692;2023-11-21T00:18:14;0.40;;;0.38;;
6651;SDS011;3362;50.892;10.692;2023-11-21T00:20:41;0.40;;;0.30;;
6651;SDS011;3362;50.892;10.692;2023-11-21T00:23:07;0.77;;;0.77;;
6651;SDS011;3362;50.892;10.692;2023-11-21T00:28:02;0.57;;;0.57;;
6651;SDS011;3362;50.892;10.692;2023-11-21T00:30:28;0.47;;;0.47;;
6651;SDS011;3362;50.892;10.692;2023-11-21T00:32:56;5.07;;;1.23;;
6651;SDS011;3362;50.892;10.692;2023-11-21T00:35:22;1.75;;;0.82;;
6651;SDS011;3362;50.892;10.692;2023-11-21T00:37:48;0.88;;;0.50;;
6651;SDS011;3362;50.892;10.692;2023-11-21T00:42:44;0.30;;;0.13;;
6651;SDS011;3362;50.892;10.692;2023-11-21T00:45:12;0.35;;;0.28;;
6651;SDS011;3362;50.892;10.692;2023-11-21T00:47:39;0.30;;;0.20;;
6651;SDS011;3362;50.892;10.692;2023-11-21T00:50:05;0.50;;;0.50;;
6651;SDS011;3362;50.892;10.692;2023-11-21T00:52:32;0.30;;;0.20;;
6651;SDS011;3362;50.892;10.692;2023-11-21T00:54:58;0.60;;;0.55;;
6651;SDS011;3362;50.892;10.692;2023-11-21T00:57:25;0.30;;;0.30;;
6651;SDS011;3362;50.892;10.692;2023-11-21T00:59:51;0.90;;;0.50;;
6651;SDS011;3362;50.892;10.692;2023-11-21T01:04:45;0.65;;;0.65;;
6651;SDS011;3362;50.892;10.692;2023-11-21T01:07:12;0.40;;;0.30;;
6651;SDS011;3362;50.892;10.692;2023-11-21T01:09:39;0.50;;;0.30;;
6651;SDS011;3362;50.892;10.692;2023-11-21T01:12:05;0.65;;;0.57;;
6651;SDS011;3362;50.892;10.692;2023-11-21T01:14:32;1.17;;;0.77;;
6651;SDS011;3362;50.892;10.692;2023-11-21T01:16:58;0.55;;;0.55;;
6651;SDS011;3362;50.892;10.692;2023-11-21T01:19:25;2.00;;;0.60;;
6651;SDS011;3362;50.892;10.692;2023-11-21T01:21:52;0.70;;;0.63;;
6651;SDS011;3362;50.892;10.692;2023-11-21T01:24:19;0.73;;;0.40;;
6651;SDS011;3362;50.892;10.692;2023-11-21T01:26:45;1.25;;;1.17;;
6651;SDS011;3362;50.892;10.692;2023-11-21T01:29:11;1.77;;;0.90;;
6651;SDS011;3362;50.892;10.692;2023-11-21T01:31:38;0.60;;;0.50;;
6651;SDS011;3362;50.892;10.692;2023-11-21T01:34:04;1.00;;;0.70;;
6651;SDS011;3362;50.892;10.692;2023-11-21T01:36:30;1.02;;;0.60;;
6651;SDS011;3362;50.892;10.692;2023-11-21T01:38:59;0.40;;;0.30;;
6651;SDS011;3362;50.892;10.692;2023-11-21T01:41:25;0.40;;;0.30;;
6651;SDS011;3362;50.892;10.692;2023-11-21T01:43:53;0.38;;;0.38;;
6651;SDS011;3362;50.892;10.692;2023-11-21T01:46:19;1.55;;;0.82;;
6651;SDS011;3362;50.892;10.692;2023-11-21T01:48:46;0.50;;;0.40;;
6651;SDS011;3362;50.892;10.692;2023-11-21T01:51:12;0.52;;;0.40;;
6651;SDS011;3362;50.892;10.692;2023-11-21T01:53:39;0.73;;;0.28;;
6651;SDS011;3362;50.892;10.692;2023-11-21T01:58:34;0.60;;;0.57;;
6651;SDS011;3362;50.892;10.692;2023-11-21T02:01:00;0.43;;;0.40;;
6651;SDS011;3362;50.892;10.692;2023-11-21T02:03:27;0.95;;;0.80;;
6651;SDS011;3362;50.892;10.692;2023-11-21T02:05:53;1.20;;;0.75;;
6651;SDS011;3362;50.892;10.692;2023-11-21T02:08:20;0.47;;;0.43;;
6651;SDS011;3362;50.892;10.692;2023-11-21T02:10:46;3.13;;;0.80;;
6651;SDS011;3362;50.892;10.692;2023-11-21T02:13:13;0.98;;;0.45;;
6651;SDS011;3362;50.892;10.692;2023-11-21T02:15:41;0.45;;;0.35;;
6651;SDS011;3362;50.892;10.692;2023-11-21T02:18:07;0.40;;;0.38;;
6651;SDS011;3362;50.892;10.692;2023-11-21T02:20:36;1.73;;;1.10;;
6651;SDS011;3362;50.892;10.692;2023-11-21T02:23:05;3.78;;;0.63;;
6651;SDS011;3362;50.892;10.692;2023-11-21T02:25:32;1.17;;;1.10;;
6651;SDS011;3362;50.892;10.692;2023-11-21T02:28:00;0.88;;;0.50;;
6651;SDS011;3362;50.892;10.692;2023-11-21T02:30:27;0.63;;;0.47;;
6651;SDS011;3362;50.892;10.692;2023-11-21T02:35:20;1.27;;;0.90;;
6651;SDS011;3362;50.892;10.692;2023-11-21T02:37:47;1.10;;;0.73;;
6651;SDS011;3362;50.892;10.692;2023-11-21T02:40:14;0.57;;;0.50;;
6651;SDS011;3362;50.892;10.692;2023-11-21T02:42:42;0.88;;;0.57;;
6651;SDS011;3362;50.892;10.692;2023-11-21T02:45:09;0.77;;;0.30;;
6651;SDS011;3362;50.892;10.692;2023-11-21T02:47:37;0.60;;;0.30;;
6651;SDS011;3362;50.892;10.692;2023-11-21T02:50:04;0.57;;;0.50;;
6651;SDS011;3362;50.892;10.692;2023-11-21T02:52:31;3.70;;;0.50;;
6651;SDS011;3362;50.892;10.692;2023-11-21T02:54:58;2.70;;;0.60;;
6651;SDS011;3362;50.892;10.692;2023-11-21T02:57:25;0.32;;;0.30;;
6651;SDS011;3362;50.892;10.692;2023-11-21T02:59:52;0.73;;;0.40;;
6651;SDS011;3362;50.892;10.692;2023-11-21T03:02:18;0.30;;;0.15;;
6651;SDS011;3362;50.892;10.692;2023-11-21T03:04:44;0.40;;;0.40;;
6651;SDS011;3362;50.892;10.692;2023-11-21T03:07:10;0.40;;;0.32;;
6651;SDS011;3362;50.892;10.692;2023-11-21T03:09:37;0.93;;;0.60;;
6651;SDS011;3362;50.892;10.692;2023-11-21T03:14:31;0.45;;;0.43;;
6651;SDS011;3362;50.892;10.692;2023-11-21T03:16:57;0.75;;;0.73;;
6651;SDS011;3362;50.892;10.692;2023-11-21T03:19:24;1.92;;;0.50;;
6651;SDS011;3362;50.892;10.692;2023-11-21T03:21:50;0.68;;;0.40;;
6651;SDS011;3362;50.892;10.692;2023-11-21T03:24:18;0.30;;;0.30;;
6651;SDS011;3362;50.892;10.692;2023-11-21T03:26:44;0.40;;;0.30;;
6651;SDS011;3362;50.892;10.692;2023-11-21T03:29:11;1.27;;;0.55;;
6651;SDS011;3362;50.892;10.692;2023-11-21T03:31:39;0.65;;;0.40;;
6651;SDS011;3362;50.892;10.692;2023-11-21T03:34:06;0.70;;;0.20;;
6651;SDS011;3362;50.892;10.692;2023-11-21T03:36:32;1.00;;;0.47;;
6651;SDS011;3362;50.892;10.692;2023-11-21T03:38:58;0.38;;;0.38;;
6651;SDS011;3362;50.892;10.692;2023-11-21T03:41:25;0.35;;;0.35;;
6651;SDS011;3362;50.892;10.692;2023-11-21T03:43:51;1.08;;;0.70;;
6651;SDS011;3362;50.892;10.692;2023-11-21T03:46:17;0.95;;;0.85;;
6651;SDS011;3362;50.892;10.692;2023-11-21T03:48:45;0.30;;;0.20;;
6651;SDS011;3362;50.892;10.692;2023-11-21T03:51:11;0.40;;;0.40;;
6651;SDS011;3362;50.892;10.692;2023-11-21T03:53:37;1.67;;;0.40;;
6651;SDS011;3362;50.892;10.692;2023-11-21T03:56:04;0.43;;;0.43;;
6651;SDS011;3362;50.892;10.692;2023-11-21T03:58:30;0.88;;;0.35;;
6651;SDS011;3362;50.892;10.692;2023-11-21T04:00:57;0.35;;;0.30;;
6651;SDS011;3362;50.892;10.692;2023-11-21T04:03:23;1.35;;;0.55;;
6651;SDS011;3362;50.892;10.692;2023-11-21T04:05:50;0.30;;;0.30;;
6651;SDS011;3362;50.892;10.692;2023-11-21T04:08:17;0.75;;;0.47;;
6651;SDS011;3362;50.892;10.692;2023-11-21T04:10:43;0.30;;;0.20;;
6651;SDS011;3362;50.892;10.692;2023-11-21T04:13:09;0.30;;;0.20;;
6651;SDS011;3362;50.892;10.692;2023-11-21T04:15:36;0.30;;;0.30;;
6651;SDS011;3362;50.892;10.692;2023-11-21T04:18:02;0.73;;;0.73;;
6651;SDS011;3362;50.892;10.692;2023-11-21T04:20:29;0.32;;;0.30;;
6651;SDS011;3362;50.892;10.692;2023-11-21T04:22:56;0.93;;;0.52;;
6651;SDS011;3362;50.892;10.692;2023-11-21T04:25:23;0.60;;;0.60;;
6651;SDS011;3362;50.892;10.692;2023-11-21T04:27:49;1.02;;;0.52;;
6651;SDS011;3362;50.892;10.692;2023-11-21T04:30:15;0.70;;;0.70;;
6651;SDS011;3362;50.892;10.692;2023-11-21T04:32:42;1.65;;;0.82;;
6651;SDS011;3362;50.892;10.692;2023-11-21T04:35:08;1.67;;;1.25;;
6651;SDS011;3362;50.892;10.692;2023-11-21T04:37:34;1.90;;;1.48;;
6651;SDS011;3362;50.892;10.692;2023-11-21T04:40:02;1.15;;;1.05;;
6651;SDS011;3362;50.892;10.692;2023-11-21T04:42:31;1.05;;;1.00;;
6651;SDS011;3362;50.892;10.692;2023-11-21T04:44:58;1.42;;;0.70;;
6651;SDS011;3362;50.892;10.692;2023-11-21T04:47:24;0.50;;;0.50;;
6651;SDS011;3362;50.892;10.692;2023-11-21T04:49:50;0.30;;;0.30;;
6651;SDS011;3362;50.892;10.692;2023-11-21T04:52:17;0.30;;;0.30;;
6651;SDS011;3362;50.892;10.692;2023-11-21T04:54:45;0.40;;;0.30;;
6651;SDS011;3362;50.892;10.692;2023-11-21T04:57:12;0.30;;;0.10;;
6651;SDS011;3362;50.892;10.692;2023-11-21T04:59:39;0.30;;;0.30;;
6651;SDS011;3362;50.892;10.692;2023-11-21T05:02:05;0.77;;;0.77;;
6651;SDS011;3362;50.892;10.692;2023-11-21T05:04:31;0.43;;;0.40;;
6651;SDS011;3362;50.892;10.692;2023-11-21T05:06:58;0.57;;;0.57;;
6651;SDS011;3362;50.892;10.692;2023-11-21T05:09:25;0.30;;;0.20;;
6651;SDS011;3362;50.892;10.692;2023-11-21T05:11:53;0.40;;;0.30;;
6651;SDS011;3362;50.892;10.692;2023-11-21T05:14:21;1.15;;;0.20;;
6651;SDS011;3362;50.892;10.692;2023-11-21T05:16:47;0.65;;;0.30;;
6651;SDS011;3362;50.892;10.692;2023-11-21T05:19:15;12.45;;;0.82;;
6651;SDS011;3362;50.892;10.692;2023-11-21T05:21:42;0.30;;;0.20;;
6651;SDS011;3362;50.892;10.692;2023-11-21T05:24:08;0.30;;;0.25;;
6651;SDS011;3362;50.892;10.692;2023-11-21T05:26:35;0.30;;;0.30;;
6651;SDS011;3362;50.892;10.692;2023-11-21T05:29:01;2.45;;;0.52;;
6651;SDS011;3362;50.892;10.692;2023-11-21T05:31:29;1.02;;;0.95;;
6651;SDS011;3362;50.892;10.692;2023-11-21T05:33:55;0.70;;;0.50;;
6651;SDS011;3362;50.892;10.692;2023-11-21T05:36:21;0.50;;;0.25;;
6651;SDS011;3362;50.892;10.692;2023-11-21T05:38:48;0.30;;;0.30;;
6651;SDS011;3362;50.892;10.692;2023-11-21T05:41:14;0.75;;;0.75;;
6651;SDS011;3362;50.892;10.692;2023-11-21T05:43:42;0.50;;;0.50;;
6651;SDS011;3362;50.892;10.692;2023-11-21T05:48:36;0.32;;;0.32;;
6651;SDS011;3362;50.892;10.692;2023-11-21T05:51:03;1.48;;;1.00;;
6651;SDS011;3362;50.892;10.692;2023-11-21T05:55:56;0.47;;;0.20;;
6651;SDS011;3362;50.892;10.692;2023-11-21T05:58:22;0.85;;;0.32;;
6651;SDS011;3362;50.892;10.692;2023-11-21T06:00:48;0.30;;;0.28;;
6651;SDS011;3362;50.892;10.692;2023-11-21T06:03:15;0.30;;;0.28;;
6651;SDS011;3362;50.892;10.692;2023-11-21T06:05:43;0.82;;;0.60;;
6651;SDS011;3362;50.892;10.692;2023-11-21T06:08:09;0.30;;;0.20;;
6651;SDS011;3362;50.892;10.692;2023-11-21T06:10:36;0.60;;;0.50;;
6651;SDS011;3362;50.892;10.692;2023-11-21T06:13:02;1.38;;;1.02;;
6651;SDS011;3362;50.892;10.692;2023-11-21T06:15:29;2.58;;;1.33;;
6651;SDS011;3362;50.892;10.692;2023-11-21T06:17:55;0.35;;;0.30;;
6651;SDS011;3362;50.892;10.692;2023-11-21T06:20:22;0.60;;;0.50;;
6651;SDS011;3362;50.892;10.692;2023-11-21T06:22:50;1.48;;;1.38;;
6651;SDS011;3362;50.892;10.692;2023-11-21T06:25:16;1.67;;;1.58;;
6651;SDS011;3362;50.892;10.692;2023-11-21T06:27:43;0.63;;;0.60;;
6651;SDS011;3362;50.892;10.692;2023-11-21T06:30:10;2.58;;;1.73;;
6651;SDS011;3362;50.892;10.692;2023-11-21T06:32:37;0.82;;;0.52;;
6651;SDS011;3362;50.892;10.692;2023-11-21T06:35:03;3.33;;;1.52;;
6651;SDS011;3362;50.892;10.692;2023-11-21T06:39:58;1.08;;;0.80;;
6651;SDS011;3362;50.892;10.692;2023-11-21T06:42:24;3.33;;;1.38;;
6651;SDS011;3362;50.892;10.692;2023-11-21T06:44:51;2.60;;;1.63;;
6651;SDS011;3362;50.892;10.692;2023-11-21T06:47:18;1.58;;;0.88;;
6651;SDS011;3362;50.892;10.692;2023-11-21T06:49:45;0.45;;;0.45;;
6651;SDS011;3362;50.892;10.692;2023-11-21T06:52:13;1.25;;;0.77;;
6651;SDS011;3362;50.892;10.692;2023-11-21T06:54:39;0.98;;;0.93;;
6651;SDS011;3362;50.892;10.692;2023-11-21T06:57:07;2.35;;;0.93;;
6651;SDS011;3362;50.892;10.692;2023-11-21T06:59:33;1.40;;;0.73;;
6651;SDS011;3362;50.892;10.692;2023-11-21T07:02:00;1.85;;;0.75;;
6651;SDS011;3362;50.892;10.692;2023-11-21T07:04:27;1.70;;;1.60;;
6651;SDS011;3362;50.892;10.692;2023-11-21T07:06:53;1.83;;;1.70;;
6651;SDS011;3362;50.892;10.692;2023-11-21T07:09:19;2.63;;;1.08;;
6651;SDS011;3362;50.892;10.692;2023-11-21T07:11:47;0.50;;;0.32;;
6651;SDS011;3362;50.892;10.692;2023-11-21T07:14:14;0.40;;;0.40;;
6651;SDS011;3362;50.892;10.692;2023-11-21T07:16:42;1.30;;;0.90;;
6651;SDS011;3362;50.892;10.692;2023-11-21T07:19:08;1.48;;;0.75;;
6651;SDS011;3362;50.892;10.692;2023-11-21T07:21:35;0.40;;;0.40;;
6651;SDS011;3362;50.892;10.692;2023-11-21T07:24:02;0.98;;;0.88;;
6651;SDS011;3362;50.892;10.692;2023-11-21T07:26:28;0.30;;;0.25;;
6651;SDS011;3362;50.892;10.692;2023-11-21T07:28:55;0.73;;;0.68;;
6651;SDS011;3362;50.892;10.692;2023-11-21T07:31:23;0.40;;;0.38;;
6651;SDS011;3362;50.892;10.692;2023-11-21T07:33:49;0.43;;;0.43;;
6651;SDS011;3362;50.892;10.692;2023-11-21T07:36:15;0.73;;;0.73;;
6651;SDS011;3362;50.892;10.692;2023-11-21T07:38:43;3.05;;;1.05;;
6651;SDS011;3362;50.892;10.692;2023-11-21T07:41:09;0.50;;;0.50;;
6651;SDS011;3362;50.892;10.692;2023-11-21T07:43:36;1.42;;;0.90;;
6651;SDS011;3362;50.892;10.692;2023-11-21T07:46:03;0.50;;;0.50;;
6651;SDS011;3362;50.892;10.692;2023-11-21T07:48:31;3.33;;;1.33;;
6651;SDS011;3362;50.892;10.692;2023-11-21T07:50:57;1.90;;;1.10;;
6651;SDS011;3362;50.892;10.692;2023-11-21T07:53:24;1.45;;;0.65;;
6651;SDS011;3362;50.892;10.692;2023-11-21T07:55:50;1.00;;;0.45;;
6651;SDS011;3362;50.892;10.692;2023-11-21T07:58:17;0.50;;;0.50;;
6651;SDS011;3362;50.892;10.692;2023-11-21T08:00:43;0.85;;;0.85;;
6651;SDS011;3362;50.892;10.692;2023-11-21T08:03:09;0.75;;;0.68;;
6651;SDS011;3362;50.892;10.692;2023-11-21T08:05:37;0.70;;;0.40;;
6651;SDS011;3362;50.892;10.692;2023-11-21T08:08:04;1.75;;;0.75;;
6651;SDS011;3362;50.892;10.692;2023-11-21T08:10:30;2.88;;;0.77;;
6651;SDS011;3362;50.892;10.692;2023-11-21T08:12:57;3.97;;;1.15;;
6651;SDS011;3362;50.892;10.692;2023-11-21T08:15:23;0.32;;;0.30;;
6651;SDS011;3362;50.892;10.692;2023-11-21T08:17:49;1.20;;;1.15;;
6651;SDS011;3362;50.892;10.692;2023-11-21T08:20:16;2.70;;;1.33;;
6651;SDS011;3362;50.892;10.692;2023-11-21T08:22:44;5.38;;;1.65;;
6651;SDS011;3362;50.892;10.692;2023-11-21T08:25:12;2.10;;;1.42;;
6651;SDS011;3362;50.892;10.692;2023-11-21T08:27:40;3.75;;;1.60;;
6651;SDS011;3362;50.892;10.692;2023-11-21T08:30:06;0.85;;;0.65;;
6651;SDS011;3362;50.892;10.692;2023-11-21T08:32:33;0.80;;;0.80;;
6651;SDS011;3362;50.892;10.692;2023-11-21T08:35:00;0.60;;;0.60;;
6651;SDS011;3362;50.892;10.692;2023-11-21T08:37:26;1.33;;;1.20;;
6651;SDS011;3362;50.892;10.692;2023-11-21T08:39:57;0.68;;;0.60;;
6651;SDS011;3362;50.892;10.692;2023-11-21T08:42:24;0.63;;;0.35;;
6651;SDS011;3362;50.892;10.692;2023-11-21T08:44:50;0.70;;;0.55;;
6651;SDS011;3362;50.892;10.692;2023-11-21T08:47:16;1.40;;;1.30;;
6651;SDS011;3362;50.892;10.692;2023-11-21T08:49:43;1.35;;;1.02;;
6651;SDS011;3362;50.892;10.692;2023-11-21T08:52:10;7.30;;;2.13;;
6651;SDS011;3362;50.892;10.692;2023-11-21T08:54:37;1.77;;;1.65;;
6651;SDS011;3362;50.892;10.692;2023-11-21T08:57:05;1.67;;;1.10;;
6651;SDS011;3362;50.892;10.692;2023-11-21T08:59:31;4.35;;;2.53;;
6651;SDS011;3362;50.892;10.692;2023-11-21T09:04:24;1.42;;;1.17;;
6651;SDS011;3362;50.892;10.692;2023-11-21T09:06:50;1.90;;;1.80;;
6651;SDS011;3362;50.892;10.692;2023-11-21T09:09:16;1.25;;;1.17;;
6651;SDS011;3362;50.892;10.692;2023-11-21T09:11:44;1.67;;;1.27;;
6651;SDS011;3362;50.892;10.692;2023-11-21T09:14:12;3.75;;;2.10;;
6651;SDS011;3362;50.892;10.692;2023-11-21T09:16:41;2.35;;;1.67;;
6651;SDS011;3362;50.892;10.692;2023-11-21T09:19:08;1.52;;;1.42;;
6651;SDS011;3362;50.892;10.692;2023-11-21T09:21:34;3.10;;;1.90;;
6651;SDS011;3362;50.892;10.692;2023-11-21T09:24:00;3.60;;;1.77;;
6651;SDS011;3362;50.892;10.692;2023-11-21T09:26:27;2.20;;;2.05;;
6651;SDS011;3362;50.892;10.692;2023-11-21T09:28:55;6.07;;;2.38;;
6651;SDS011;3362;50.892;10.692;2023-11-21T09:31:23;2.10;;;1.90;;
6651;SDS011;3362;50.892;10.692;2023-11-21T09:33:49;3.53;;;2.15;;
6651;SDS011;3362;50.892;10.692;2023-11-21T09:36:15;5.05;;;2.50;;
6651;SDS011;3362;50.892;10.692;2023-11-21T09:38:41;3.03;;;2.05;;
6651;SDS011;3362;50.892;10.692;2023-11-21T09:41:10;4.80;;;2.67;;
6651;SDS011;3362;50.892;10.692;2023-11-21T09:43:42;3.13;;;2.83;;
6651;SDS011;3362;50.892;10.692;2023-11-21T09:46:10;4.90;;;3.42;;
6651;SDS011;3362;50.892;10.692;2023-11-21T09:48:42;2.20;;;1.80;;
6651;SDS011;3362;50.892;10.692;2023-11-21T09:51:10;4.75;;;2.67;;
6651;SDS011;3362;50.892;10.692;2023-11-21T09:53:37;5.53;;;4.07;;
6651;SDS011;3362;50.892;10.692;2023-11-21T09:56:04;3.75;;;2.20;;
6651;SDS011;3362;50.892;10.692;2023-11-21T09:58:30;2.42;;;2.22;;
6651;SDS011;3362;50.892;10.692;2023-11-21T10:00:59;5.70;;;3.08;;
6651;SDS011;3362;50.892;10.692;2023-11-21T10:03:28;4.50;;;2.92;;
6651;SDS011;3362;50.892;10.692;2023-11-21T10:05:56;5.47;;;3.70;;
6651;SDS011;3362;50.892;10.692;2023-11-21T10:08:24;8.25;;;3.92;;
6651;SDS011;3362;50.892;10.692;2023-11-21T10:10:53;4.78;;;3.50;;
6651;SDS011;3362;50.892;10.692;2023-11-21T10:13:20;8.68;;;3.00;;
6651;SDS011;3362;50.892;10.692;2023-11-21T10:18:13;4.35;;;3.55;;
6651;SDS011;3362;50.892;10.692;2023-11-21T10:20:41;7.70;;;3.90;;
6651;SDS011;3362;50.892;10.692;2023-11-21T10:23:09;7.72;;;2.55;;
6651;SDS011;3362;50.892;10.692;2023-11-21T10:25:38;2.92;;;1.95;;
6651;SDS011;3362;50.892;10.692;2023-11-21T10:28:04;6.28;;;4.05;;
6651;SDS011;3362;50.892;10.692;2023-11-21T10:30:32;2.35;;;2.00;;
6651;SDS011;3362;50.892;10.692;2023-11-21T10:33:02;4.10;;;2.20;;
6651;SDS011;3362;50.892;10.692;2023-11-21T10:35:38;6.00;;;3.75;;
6651;SDS011;3362;50.892;10.692;2023-11-21T10:38:04;4.45;;;3.58;;
6651;SDS011;3362;50.892;10.692;2023-11-21T10:40:32;4.65;;;2.67;;
6651;SDS011;3362;50.892;10.692;2023-11-21T10:43:02;2.33;;;2.13;;
6651;SDS011;3362;50.892;10.692;2023-11-21T10:45:31;7.55;;;3.03;;
6651;SDS011;3362;50.892;10.692;2023-11-21T10:47:58;6.93;;;3.33;;
6651;SDS011;3362;50.892;10.692;2023-11-21T10:50:24;6.53;;;4.28;;
6651;SDS011;3362;50.892;10.692;2023-11-21T10:55:17;2.92;;;2.17;;
6651;SDS011;3362;50.892;10.692;2023-11-21T10:57:44;5.93;;;3.70;;
6651;SDS011;3362;50.892;10.692;2023-11-21T11:00:13;5.75;;;4.20;;
6651;SDS011;3362;50.892;10.692;2023-11-21T11:02:40;6.43;;;2.92;;
6651;SDS011;3362;50.892;10.692;2023-11-21T11:05:07;7.55;;;4.00;;
6651;SDS011;3362;50.892;10.692;2023-11-21T11:07:36;7.30;;;3.30;;
6651;SDS011;3362;50.892;10.692;2023-11-21T11:10:05;4.55;;;3.65;;
6651;SDS011;3362;50.892;10.692;2023-11-21T11:12:33;4.38;;;2.92;;
6651;SDS011;3362;50.892;10.692;2023-11-21T11:15:01;3.78;;;2.83;;
6651;SDS011;3362;50.892;10.692;2023-11-21T11:17:30;7.82;;;3.28;;
6651;SDS011;3362;50.892;10.692;2023-11-21T11:19:57;6.35;;;2.05;;
6651;SDS011;3362;50.892;10.692;2023-11-21T11:22:29;4.55;;;2.42;;
6651;SDS011;3362;50.892;10.692;2023-11-21T11:25:03;3.42;;;3.13;;
6651;SDS011;3362;50.892;10.692;2023-11-21T11:27:40;1.92;;;1.80;;
6651;SDS011;3362;50.892;10.692;2023-11-21T11:30:22;3.70;;;3.00;;
6651;SDS011;3362;50.892;10.692;2023-11-21T11:32:52;3.28;;;2.85;;
6651;SDS011;3362;50.892;10.692;2023-11-21T11:35:23;2.45;;;2.20;;
6651;SDS011;3362;50.892;10.692;2023-11-21T11:37:52;2.55;;;1.05;;
6651;SDS011;3362;50.892;10.692;2023-11-21T11:40:19;9.77;;;2.78;;
6651;SDS011;3362;50.892;10.692;2023-11-21T11:42:55;3.05;;;2.75;;
6651;SDS011;3362;50.892;10.692;2023-11-21T11:45:23;7.22;;;3.22;;
6651;SDS011;3362;50.892;10.692;2023-11-21T11:47:56;5.35;;;2.92;;
6651;SDS011;3362;50.892;10.692;2023-11-21T11:50:22;1.95;;;1.70;;
6651;SDS011;3362;50.892;10.692;2023-11-21T11:52:50;4.25;;;2.40;;
6651;SDS011;3362;50.892;10.692;2023-11-21T11:55:18;4.40;;;2.35;;
6651;SDS011;3362;50.892;10.692;2023-11-21T11:57:45;5.30;;;3.03;;
6651;SDS011;3362;50.892;10.692;2023-11-21T12:00:14;3.60;;;2.30;;
6651;SDS011;3362;50.892;10.692;2023-11-21T12:02:45;3.70;;;2.88;;
6651;SDS011;3362;50.892;10.692;2023-11-21T12:05:13;4.88;;;3.25;;
6651;SDS011;3362;50.892;10.692;2023-11-21T12:07:46;5.22;;;3.10;;
6651;SDS011;3362;50.892;10.692;2023-11-21T12:10:13;3.95;;;3.00;;
6651;SDS011;3362;50.892;10.692;2023-11-21T12:12:43;2.97;;;2.30;;
6651;SDS011;3362;50.892;10.692;2023-11-21T12:15:10;3.03;;;2.55;;
6651;SDS011;3362;50.892;10.692;2023-11-21T12:17:37;6.63;;;2.25;;
6651;SDS011;3362;50.892;10.692;2023-11-21T12:20:05;3.05;;;2.40;;
6651;SDS011;3362;50.892;10.692;2023-11-21T12:22:39;4.80;;;2.33;;
6651;SDS011;3362;50.892;10.692;2023-11-21T12:25:06;5.18;;;2.70;;
6651;SDS011;3362;50.892;10.692;2023-11-21T12:27:33;4.15;;;2.90;;
6651;SDS011;3362;50.892;10.692;2023-11-21T12:30:00;3.25;;;2.92;;
6651;SDS011;3362;50.892;10.692;2023-11-21T12:32:26;3.30;;;2.20;;
6651;SDS011;3362;50.892;10.692;2023-11-21T12:34:52;1.67;;;1.58;;
6651;SDS011;3362;50.892;10.692;2023-11-21T12:37:21;5.00;;;3.30;;
6651;SDS011;3362;50.892;10.692;2023-11-21T12:39:47;6.45;;;3.30;;
6651;SDS011;3362;50.892;10.692;2023-11-21T12:42:14;5.80;;;2.28;;
6651;SDS011;3362;50.892;10.692;2023-11-21T12:44:41;5.85;;;3.17;;
6651;SDS011;3362;50.892;10.692;2023-11-21T12:47:10;4.60;;;3.65;;
6651;SDS011;3362;50.892;10.692;2023-11-21T12:49:39;5.05;;;2.88;;
6651;SDS011;3362;50.892;10.692;2023-11-21T12:52:09;2.63;;;1.65;;
6651;SDS011;3362;50.892;10.692;2023-11-21T12:54:38;3.28;;;1.88;;
6651;SDS011;3362;50.892;10.692;2023-11-21T12:57:04;4.57;;;3.10;;
6651;SDS011;3362;50.892;10.692;2023-11-21T12:59:33;2.75;;;1.50;;
6651;SDS011;3362;50.892;10.692;2023-11-21T13:01:59;2.60;;;1.83;;
6651;SDS011;3362;50.892;10.692;2023-11-21T13:04:30;3.63;;;2.25;;
6651;SDS011;3362;50.892;10.692;2023-11-21T13:07:02;5.38;;;3.20;;
6651;SDS011;3362;50.892;10.692;2023-11-21T13:09:31;4.95;;;2.67;;
6651;SDS011;3362;50.892;10.692;2023-11-21T13:12:00;2.67;;;2.40;;
6651;SDS011;3362;50.892;10.692;2023-11-21T13:14:28;1.52;;;1.25;;
6651;SDS011;3362;50.892;10.692;2023-11-21T13:16:56;3.63;;;2.35;;
6651;SDS011;3362;50.892;10.692;2023-11-21T13:19:23;4.50;;;2.85;;
6651;SDS011;3362;50.892;10.692;2023-11-21T13:21:49;4.85;;;1.88;;
6651;SDS011;3362;50.892;10.692;2023-11-21T13:24:16;5.43;;;3.08;;
6651;SDS011;3362;50.892;10.692;2023-11-21T13:26:43;4.05;;;1.80;;
6651;SDS011;3362;50.892;10.692;2023-11-21T13:29:12;3.17;;;1.77;;
6651;SDS011;3362;50.892;10.692;2023-11-21T13:31:38;3.78;;;2.50;;
6651;SDS011;3362;50.892;10.692;2023-11-21T13:34:04;1.88;;;1.40;;
6651;SDS011;3362;50.892;10.692;2023-11-21T13:36:33;1.70;;;1.50;;
6651;SDS011;3362;50.892;10.692;2023-11-21T13:39:00;3.03;;;1.33;;
6651;SDS011;3362;50.892;10.692;2023-11-21T13:41:32;2.72;;;1.40;;
6651;SDS011;3362;50.892;10.692;2023-11-21T13:43:58;1.33;;;1.17;;
6651;SDS011;3362;50.892;10.692;2023-11-21T13:46:35;2.65;;;2.15;;
6651;SDS011;3362;50.892;10.692;2023-11-21T13:49:02;2.88;;;1.48;;
6651;SDS011;3362;50.892;10.692;2023-11-21T13:51:30;5.10;;;2.30;;
6651;SDS011;3362;50.892;10.692;2023-11-21T13:54:04;1.83;;;1.30;;
6651;SDS011;3362;50.892;10.692;2023-11-21T13:56:34;2.85;;;0.98;;
6651;SDS011;3362;50.892;10.692;2023-11-21T13:59:00;3.17;;;1.63;;
6651;SDS011;3362;50.892;10.692;2023-11-21T14:01:35;2.25;;;1.00;;
6651;SDS011;3362;50.892;10.692;2023-11-21T14:04:19;6.63;;;1.45;;
6651;SDS011;3362;50.892;10.692;2023-11-21T14:06:58;1.10;;;0.73;;
6651;SDS011;3362;50.892;10.692;2023-11-21T14:09:35;0.82;;;0.82;;
6651;SDS011;3362;50.892;10.692;2023-11-21T14:12:08;1.45;;;1.35;;
6651;SDS011;3362;50.892;10.692;2023-11-21T14:17:03;0.30;;;0.30;;
6651;SDS011;3362;50.892;10.692;2023-11-21T14:19:31;0.40;;;0.35;;
6651;SDS011;3362;50.892;10.692;2023-11-21T14:24:24;0.75;;;0.38;;
6651;SDS011;3362;50.892;10.692;2023-11-21T14:26:51;1.00;;;0.70;;
6651;SDS011;3362;50.892;10.692;2023-11-21T14:29:18;1.80;;;0.82;;
6651;SDS011;3362;50.892;10.692;2023-11-21T14:31:45;2.90;;;0.77;;
6651;SDS011;3362;50.892;10.692;2023-11-21T14:34:13;2.40;;;1.33;;
6651;SDS011;3362;50.892;10.692;2023-11-21T14:36:40;2.35;;;1.63;;
6651;SDS011;3362;50.892;10.692;2023-11-21T14:39:08;1.73;;;1.50;;
6651;SDS011;3362;50.892;10.692;2023-11-21T14:41:45;2.17;;;0.93;;
6651;SDS011;3362;50.892;10.692;2023-11-21T14:44:11;3.90;;;1.55;;
6651;SDS011;3362;50.892;10.692;2023-11-21T14:46:39;1.75;;;1.65;;
6651;SDS011;3362;50.892;10.692;2023-11-21T14:49:09;2.10;;;1.20;;
6651;SDS011;3362;50.892;10.692;2023-11-21T14:51:46;1.35;;;1.25;;
6651;SDS011;3362;50.892;10.692;2023-11-21T14:54:25;2.17;;;1.98;;
6651;SDS011;3362;50.892;10.692;2023-11-21T14:57:04;3.85;;;2.33;;
6651;SDS011;3362;50.892;10.692;2023-11-21T14:59:32;3.38;;;1.52;;
6651;SDS011;3362;50.892;10.692;2023-11-21T15:01:58;4.65;;;2.45;;
6651;SDS011;3362;50.892;10.692;2023-11-21T15:04:25;2.78;;;2.00;;
6651;SDS011;3362;50.892;10.692;2023-11-21T15:07:02;2.35;;;2.15;;
6651;SDS011;3362;50.892;10.692;2023-11-21T15:09:28;4.00;;;3.67;;
6651;SDS011;3362;50.892;10.692;2023-11-21T15:12:01;8.77;;;4.18;;
6651;SDS011;3362;50.892;10.692;2023-11-21T15:14:37;7.60;;;2.72;;
6651;SDS011;3362;50.892;10.692;2023-11-21T15:17:03;3.47;;;3.10;;
6651;SDS011;3362;50.892;10.692;2023-11-21T15:19:31;3.55;;;3.15;;
6651;SDS011;3362;50.892;10.692;2023-11-21T15:21:57;4.28;;;2.45;;
6651;SDS011;3362;50.892;10.692;2023-11-21T15:24:25;4.30;;;2.95;;
6651;SDS011;3362;50.892;10.692;2023-11-21T15:26:52;9.65;;;3.60;;
6651;SDS011;3362;50.892;10.692;2023-11-21T15:29:19;3.10;;;2.10;;
6651;SDS011;3362;50.892;10.692;2023-11-21T15:31:46;5.65;;;2.78;;
6651;SDS011;3362;50.892;10.692;2023-11-21T15:34:13;4.72;;;3.00;;
6651;SDS011;3362;50.892;10.692;2023-11-21T15:36:40;3.47;;;3.17;;